createdAt,value
2022-12-25T00:00:27.933Z,29.93
2022-12-25T00:03:31.223Z,36.60
2022-12-25T00:06:33.996Z,37.22
2022-12-25T00:09:36.677Z,24.70
2022-12-25T00:12:39.493Z,27.80
2022-12-25T00:15:42.182Z,25.33
2022-12-25T00:18:45.766Z,23.67
2022-12-25T00:21:48.244Z,28.52
2022-12-25T00:24:51.193Z,30.17
2022-12-25T00:27:53.552Z,30.00
2022-12-25T00:30:56.529Z,31.80
2022-12-25T00:33:59.234Z,30.15
2022-12-25T00:37:01.962Z,30.23
2022-12-25T00:40:04.928Z,23.80
2022-12-25T00:43:07.633Z,10.73
2022-12-25T00:46:13.214Z,30.83
2022-12-25T00:49:16.394Z,31.85
2022-12-25T00:52:19.158Z,26.50
2022-12-25T00:55:22.194Z,28.77
2022-12-25T00:58:26.637Z,27.50
2022-12-25T01:01:29.809Z,23.80
2022-12-25T01:04:32.881Z,28.70
2022-12-25T01:07:35.720Z,24.98
2022-12-25T01:10:38.468Z,27.03
2022-12-25T01:13:41.244Z,27.90
2022-12-25T01:16:44.005Z,25.92
2022-12-25T01:19:47.261Z,24.33
2022-12-25T01:22:49.671Z,35.22
2022-12-25T01:25:52.688Z,37.20
2022-12-25T01:28:55.153Z,45.25
2022-12-25T01:31:57.897Z,30.10
2022-12-25T01:35:00.508Z,29.00
2022-12-25T01:38:03.188Z,37.67
2022-12-25T01:41:06.241Z,36.60
2022-12-25T01:44:14.882Z,29.48
2022-12-25T01:47:18.446Z,27.33
2022-12-25T01:50:22.609Z,32.42
2022-12-25T01:53:26.789Z,26.73
2022-12-25T01:56:30.449Z,25.15
2022-12-25T01:59:33.304Z,23.85
2022-12-25T02:02:37.251Z,23.87
2022-12-25T02:05:40.327Z,36.28
2022-12-25T02:08:43.865Z,39.30
2022-12-25T02:11:58.979Z,38.30
2022-12-25T02:15:08.385Z,50.22
2022-12-25T02:18:53.589Z,35.33
2022-12-25T02:22:15.236Z,28.17
2022-12-25T02:25:46.726Z,36.85
2022-12-25T02:29:03.230Z,23.70
2022-12-25T02:32:42.500Z,22.55
2022-12-25T02:35:49.946Z,19.03
2022-12-25T02:39:15.644Z,23.77
2022-12-25T02:42:48.682Z,18.73
2022-12-25T02:46:17.038Z,18.63
2022-12-25T02:49:43.262Z,25.77
2022-12-25T02:53:06.064Z,24.50
2022-12-25T02:56:28.042Z,29.63
2022-12-25T02:59:51.853Z,31.25
2022-12-25T03:03:14.268Z,35.45
2022-12-25T03:06:38.107Z,34.90
2022-12-25T03:10:05.213Z,29.83
2022-12-25T03:13:20.008Z,33.22
2022-12-25T03:16:41.772Z,27.60
2022-12-25T03:20:03.270Z,25.50
2022-12-25T03:23:25.940Z,20.80
2022-12-25T03:26:47.938Z,22.83
2022-12-25T03:30:09.099Z,17.77
2022-12-25T03:33:43.350Z,21.83
2022-12-25T03:36:46.805Z,19.45
2022-12-25T03:40:23.432Z,23.05
2022-12-25T03:44:05.743Z,20.53
2022-12-25T03:47:33.257Z,26.55
2022-12-25T03:51:06.231Z,24.40
2022-12-25T03:54:29.555Z,24.80
2022-12-25T03:57:53.610Z,28.00
2022-12-25T04:01:15.299Z,24.88
2022-12-25T04:04:36.325Z,33.30
2022-12-25T04:07:58.123Z,27.13
2022-12-25T04:11:19.244Z,23.67
2022-12-25T04:14:40.855Z,19.65
2022-12-25T04:18:02.237Z,14.90
2022-12-25T04:21:23.565Z,14.07
2022-12-25T04:24:44.984Z,13.98
2022-12-25T04:28:05.907Z,15.50
2022-12-25T04:31:27.122Z,19.13
2022-12-25T04:34:48.449Z,17.35
2022-12-25T04:37:51.341Z,12.18
2022-12-25T04:40:54.332Z,13.70
2022-12-25T04:43:56.813Z,12.73
2022-12-25T04:46:59.821Z,16.52
2022-12-25T04:50:02.572Z,19.03
2022-12-25T04:53:05.309Z,18.70
2022-12-25T04:56:08.187Z,16.38
2022-12-25T04:59:12.247Z,16.77
2022-12-25T05:02:15.174Z,24.40
2022-12-25T05:05:18.081Z,20.52
2022-12-25T05:08:20.787Z,18.55
2022-12-25T05:11:23.546Z,9.48
2022-12-25T05:14:25.967Z,12.30
2022-12-25T05:17:29.184Z,19.58
2022-12-25T05:20:38.011Z,16.63
2022-12-25T05:23:48.876Z,18.63
2022-12-25T05:26:51.770Z,16.63
2022-12-25T05:29:54.533Z,17.23
2022-12-25T05:32:57.294Z,13.80
2022-12-25T05:36:04.742Z,16.33
2022-12-25T05:39:07.592Z,17.13
2022-12-25T05:42:10.625Z,14.63
2022-12-25T05:45:13.205Z,11.60
2022-12-25T05:48:16.824Z,15.50
2022-12-25T05:51:19.622Z,16.07
2022-12-25T05:54:22.344Z,19.67
2022-12-25T05:57:25.184Z,17.38
2022-12-25T06:00:28.742Z,16.90
2022-12-25T06:03:31.584Z,24.63
2022-12-25T06:06:34.758Z,20.50
2022-12-25T06:09:37.253Z,13.20
2022-12-25T06:12:40.132Z,12.13
2022-12-25T06:15:42.587Z,13.00
2022-12-25T06:18:48.241Z,17.15
2022-12-25T06:21:54.495Z,18.00
2022-12-25T06:24:57.695Z,15.65
2022-12-25T06:28:00.510Z,25.65
2022-12-25T06:31:12.233Z,21.87
2022-12-25T06:34:16.589Z,20.40
2022-12-25T06:37:20.136Z,19.33
2022-12-25T06:40:22.901Z,25.45
2022-12-25T06:43:25.511Z,18.58
2022-12-25T06:46:29.909Z,20.60
2022-12-25T06:49:32.944Z,15.18
2022-12-25T06:52:35.658Z,15.07
2022-12-25T06:55:38.206Z,14.80
2022-12-25T06:58:42.943Z,13.63
2022-12-25T07:01:56.498Z,16.90
2022-12-25T07:05:00.065Z,15.63
2022-12-25T07:08:02.718Z,29.38
2022-12-25T07:11:05.603Z,28.52
2022-12-25T07:14:08.120Z,20.33
2022-12-25T07:17:10.867Z,15.80
2022-12-25T07:20:13.649Z,14.95
2022-12-25T07:23:16.311Z,15.93
2022-12-25T07:26:19.474Z,11.23
2022-12-25T07:29:22.098Z,7.93
2022-12-25T07:32:24.780Z,9.20
2022-12-25T07:35:27.389Z,11.27
2022-12-25T07:38:30.613Z,14.80
2022-12-25T07:41:34.046Z,15.65
2022-12-25T07:44:53.882Z,10.98
2022-12-25T07:47:59.891Z,11.98
2022-12-25T07:51:08.622Z,17.20
2022-12-25T07:54:11.184Z,11.53
2022-12-25T07:57:13.882Z,15.40
2022-12-25T08:00:16.999Z,12.65
2022-12-25T08:03:20.652Z,17.40
2022-12-25T08:06:29.524Z,11.70
2022-12-25T08:09:32.729Z,14.35
2022-12-25T08:12:35.191Z,11.18
2022-12-25T08:15:37.985Z,11.73
2022-12-25T08:18:40.695Z,8.68
2022-12-25T08:21:43.388Z,18.50
2022-12-25T08:24:45.884Z,20.43
2022-12-25T08:27:48.560Z,15.82
2022-12-25T08:30:51.435Z,16.25
2022-12-25T08:33:56.974Z,28.90
2022-12-25T08:36:59.661Z,25.88
2022-12-25T08:40:02.878Z,27.67
2022-12-25T08:43:05.784Z,37.05
2022-12-25T08:46:09.002Z,30.27
2022-12-25T08:49:11.547Z,29.95
2022-12-25T08:52:14.622Z,37.80
2022-12-25T08:55:17.749Z,48.23
2022-12-25T08:58:20.266Z,51.08
2022-12-25T09:01:23.048Z,47.42
2022-12-25T09:04:26.058Z,37.43
2022-12-25T09:07:28.644Z,29.33
2022-12-25T09:10:31.817Z,28.73
2022-12-25T09:13:34.962Z,27.55
2022-12-25T09:16:37.665Z,30.33
2022-12-25T09:19:40.291Z,34.05
2022-12-25T09:22:43.210Z,30.20
2022-12-25T09:25:46.163Z,24.93
2022-12-25T09:28:52.384Z,31.17
2022-12-25T09:31:55.537Z,21.08
2022-12-25T09:34:58.525Z,25.20
2022-12-25T09:38:01.228Z,25.20
2022-12-25T09:41:25.349Z,28.10
2022-12-25T09:44:34.837Z,29.67
2022-12-25T09:47:40.217Z,29.50
2022-12-25T09:50:48.715Z,30.40
2022-12-25T09:54:01.227Z,19.05
2022-12-25T09:57:04.058Z,16.37
2022-12-25T10:00:17.943Z,11.20
2022-12-25T10:03:44.343Z,11.13
2022-12-25T10:07:04.329Z,16.87
2022-12-25T10:10:33.165Z,18.63
2022-12-25T10:13:45.155Z,21.20
2022-12-25T10:16:53.474Z,25.00
2022-12-25T10:20:13.070Z,25.67
2022-12-25T10:23:29.542Z,27.73
2022-12-25T10:26:34.493Z,25.50
2022-12-25T10:29:38.619Z,61.97
2022-12-25T10:32:41.239Z,45.28
2022-12-25T10:35:44.509Z,29.98
2022-12-25T10:38:48.157Z,33.10
2022-12-25T10:42:04.508Z,29.23
2022-12-25T10:45:09.613Z,31.55
2022-12-25T10:48:20.757Z,19.73
2022-12-25T10:51:41.166Z,25.20
2022-12-25T10:54:43.719Z,14.88
2022-12-25T10:57:47.164Z,17.83
2022-12-25T11:01:01.290Z,17.23
2022-12-25T11:04:03.878Z,16.90
2022-12-25T11:07:14.681Z,22.20
2022-12-25T11:10:25.353Z,19.70
2022-12-25T11:13:29.901Z,20.88
2022-12-25T11:16:40.425Z,22.48
2022-12-25T11:19:52.453Z,25.48
2022-12-25T11:22:55.468Z,23.23
2022-12-25T11:26:07.177Z,26.85
2022-12-25T11:29:21.953Z,26.67
2022-12-25T11:32:42.592Z,26.00
2022-12-25T11:35:53.189Z,24.98
2022-12-25T11:38:57.130Z,22.15
2022-12-25T11:42:06.060Z,25.23
2022-12-25T11:45:16.866Z,22.70
2022-12-25T11:48:44.422Z,17.02
2022-12-25T11:51:50.581Z,23.55
2022-12-25T11:55:04.209Z,21.35
2022-12-25T11:58:18.218Z,22.90
2022-12-25T12:01:37.325Z,24.42
2022-12-25T12:04:44.903Z,26.83
2022-12-25T12:07:57.148Z,25.73
2022-12-25T12:11:16.126Z,25.13
2022-12-25T12:14:51.142Z,21.10
2022-12-25T12:17:53.731Z,19.77
2022-12-25T12:21:18.425Z,16.42
2022-12-25T12:24:22.811Z,17.85
2022-12-25T12:27:39.625Z,20.20
2022-12-25T12:30:42.196Z,19.38
2022-12-25T12:33:59.911Z,20.63
2022-12-25T12:37:11.316Z,19.20
2022-12-25T12:40:33.289Z,18.25
2022-12-25T12:43:43.033Z,19.83
2022-12-25T12:46:57.547Z,14.33
2022-12-25T12:50:01.607Z,25.17
2022-12-25T12:53:24.604Z,17.98
2022-12-25T12:56:27.256Z,21.17
2022-12-25T12:59:43.878Z,20.38
2022-12-25T13:02:58.710Z,19.85
2022-12-25T13:06:14.978Z,18.10
2022-12-25T13:09:35.397Z,21.77
2022-12-25T13:12:38.426Z,20.52
2022-12-25T13:15:41.199Z,21.92
2022-12-25T13:18:44.150Z,22.93
2022-12-25T13:21:56.605Z,22.88
2022-12-25T13:25:05.500Z,26.20
2022-12-25T13:28:14.175Z,21.88
2022-12-25T13:31:22.147Z,26.40
2022-12-25T13:34:31.811Z,24.23
2022-12-25T13:37:35.360Z,23.63
2022-12-25T13:40:38.090Z,20.80
2022-12-25T13:43:43.606Z,26.98
2022-12-25T13:46:46.522Z,30.33
2022-12-25T13:49:52.335Z,49.10
2022-12-25T13:52:57.514Z,36.70
2022-12-25T13:56:00.564Z,41.78
2022-12-25T13:59:03.808Z,35.60
2022-12-25T14:02:19.166Z,33.10
2022-12-25T14:05:42.387Z,34.00
2022-12-25T14:08:47.320Z,35.92
2022-12-25T14:11:52.433Z,38.73
2022-12-25T14:14:55.748Z,39.58
2022-12-25T14:17:58.852Z,39.13
2022-12-25T14:21:02.865Z,33.07
2022-12-25T14:24:13.687Z,32.00
2022-12-25T14:27:26.699Z,29.50
2022-12-25T14:30:29.804Z,26.55
2022-12-25T14:33:39.334Z,35.05
2022-12-25T14:36:42.460Z,38.38
2022-12-25T14:39:47.710Z,40.90
2022-12-25T14:43:19.971Z,35.13
2022-12-25T14:46:28.557Z,26.92
2022-12-25T14:49:32.628Z,28.45
2022-12-25T14:55:52.234Z,28.08
2022-12-25T14:58:59.174Z,26.65
2022-12-25T15:02:01.806Z,34.83
2022-12-25T15:05:05.360Z,32.95
2022-12-25T15:08:13.746Z,38.33
2022-12-25T15:11:16.615Z,47.67
2022-12-25T15:14:20.056Z,40.37
2022-12-25T15:17:28.080Z,53.10
2022-12-25T15:20:32.620Z,57.08
2022-12-25T15:23:35.482Z,52.63
2022-12-25T15:26:38.461Z,77.72
2022-12-25T15:30:11.296Z,74.72
2022-12-25T15:33:03.594Z,63.90
2022-12-25T15:36:06.873Z,41.80
2022-12-25T15:39:10.333Z,22.95
2022-12-25T15:42:15.069Z,62.60
2022-12-25T15:45:22.433Z,40.53
2022-12-25T15:48:24.964Z,85.93
2022-12-25T15:51:27.908Z,33.15
2022-12-25T15:54:32.540Z,38.27
2022-12-25T15:57:35.495Z,38.25
2022-12-25T16:00:38.376Z,47.30
2022-12-25T16:03:41.646Z,46.50
2022-12-25T16:06:44.633Z,47.20
2022-12-25T16:09:47.217Z,50.25
2022-12-25T16:12:50.018Z,54.05
2022-12-25T16:15:53.430Z,67.17
2022-12-25T16:18:56.251Z,61.70
2022-12-25T16:21:59.031Z,62.83
2022-12-25T16:25:01.805Z,52.00
2022-12-25T16:28:06.174Z,41.30
2022-12-25T16:31:09.174Z,39.67
2022-12-25T16:34:11.681Z,65.80
2022-12-25T16:37:14.557Z,48.00
2022-12-25T16:40:18.072Z,44.28
2022-12-25T16:43:24.120Z,48.75
2022-12-25T16:46:27.383Z,35.63
2022-12-25T16:49:29.995Z,38.88
2022-12-25T16:52:34.685Z,37.22
2022-12-25T16:55:40.257Z,28.60
2022-12-25T16:58:44.296Z,32.08
2022-12-25T17:01:47.533Z,52.85
2022-12-25T17:04:50.357Z,39.33
2022-12-25T17:07:53.582Z,41.97
2022-12-25T17:10:56.023Z,48.03
2022-12-25T17:14:03.962Z,32.78
2022-12-25T17:17:07.046Z,44.53
2022-12-25T17:20:10.342Z,37.13
2022-12-25T17:23:13.151Z,35.10
2022-12-25T17:26:15.947Z,48.40
2022-12-25T17:29:22.328Z,41.45
2022-12-25T17:32:25.944Z,51.75
2022-12-25T17:35:28.260Z,55.75
2022-12-25T17:38:32.391Z,38.80
2022-12-25T17:41:36.100Z,42.67
2022-12-25T17:44:39.032Z,45.20
2022-12-25T17:47:41.634Z,56.83
2022-12-25T17:50:44.767Z,54.83
2022-12-25T17:53:50.561Z,29.38
2022-12-25T17:56:53.603Z,43.03
2022-12-25T17:59:56.485Z,57.75
2022-12-25T18:03:05.753Z,56.25
2022-12-25T18:06:16.115Z,42.28
2022-12-25T18:09:20.160Z,45.63
2022-12-25T18:12:22.762Z,33.70
2022-12-25T18:15:25.828Z,26.02
2022-12-25T18:18:29.413Z,14.83
2022-12-25T18:21:32.161Z,24.00
2022-12-25T18:24:34.692Z,28.70
2022-12-25T18:27:37.493Z,47.90
2022-12-25T18:30:42.258Z,31.48
2022-12-25T18:33:46.306Z,36.00
2022-12-25T18:36:49.116Z,31.63
2022-12-25T18:39:52.023Z,50.53
2022-12-25T18:43:01.064Z,31.05
2022-12-25T18:46:06.836Z,40.85
2022-12-25T18:49:11.054Z,35.03
2022-12-25T18:52:49.351Z,37.33
2022-12-25T18:55:36.502Z,31.52
2022-12-25T18:58:39.831Z,30.30
2022-12-25T19:01:42.693Z,36.83
2022-12-25T19:04:45.835Z,39.85
2022-12-25T19:07:48.287Z,51.92
2022-12-25T19:10:51.482Z,47.28
2022-12-25T19:13:53.941Z,33.60
2022-12-25T19:16:57.195Z,62.35
2022-12-25T19:20:00.604Z,62.00
2022-12-25T19:23:04.027Z,70.78
2022-12-25T19:26:09.042Z,55.67
2022-12-25T19:29:12.139Z,37.33
2022-12-25T19:32:14.775Z,47.30
2022-12-25T19:35:18.050Z,51.67
2022-12-25T19:38:21.442Z,32.10
2022-12-25T19:41:24.282Z,28.55
2022-12-25T19:44:27.096Z,19.88
2022-12-25T19:47:29.893Z,35.10
2022-12-25T19:50:33.045Z,34.60
2022-12-25T19:53:35.790Z,37.83
2022-12-25T19:56:38.464Z,31.60
2022-12-25T19:59:41.529Z,29.57
2022-12-25T20:02:44.112Z,42.30
2022-12-25T20:05:47.161Z,46.10
2022-12-25T20:08:52.689Z,38.70
2022-12-25T20:11:55.863Z,53.97
2022-12-25T20:14:58.338Z,63.10
2022-12-25T20:18:03.062Z,44.72
2022-12-25T20:21:10.392Z,40.57
2022-12-25T20:24:13.261Z,49.38
2022-12-25T20:27:15.962Z,45.58
2022-12-25T20:30:18.958Z,45.37
2022-12-25T20:33:22.366Z,43.38
2022-12-25T20:36:28.540Z,44.20
2022-12-25T20:39:35.286Z,51.78
2022-12-25T20:42:38.920Z,44.17
2022-12-25T20:45:42.101Z,54.25
2022-12-25T20:48:45.163Z,53.38
2022-12-25T20:51:48.620Z,52.13
2022-12-25T20:54:51.498Z,49.63
2022-12-25T20:57:54.148Z,44.50
2022-12-25T21:00:57.437Z,47.87
2022-12-25T21:04:00.278Z,41.25
2022-12-25T21:07:03.572Z,48.08
2022-12-25T21:10:06.789Z,47.70
2022-12-25T21:13:10.080Z,52.88
2022-12-25T21:16:19.008Z,39.60
2022-12-25T21:19:21.741Z,39.33
2022-12-25T21:22:24.819Z,35.67
2022-12-25T21:25:27.909Z,33.47
2022-12-25T21:28:32.347Z,43.20
2022-12-25T21:31:55.130Z,44.10
2022-12-25T21:34:58.060Z,34.83
2022-12-25T21:38:00.623Z,31.30
2022-12-25T21:41:08.744Z,16.45
2022-12-25T21:44:11.835Z,31.70
2022-12-25T21:47:14.457Z,35.63
2022-12-25T21:50:39.255Z,40.65
2022-12-25T21:53:42.238Z,46.63
2022-12-25T21:56:47.590Z,27.55
2022-12-25T21:59:50.206Z,42.00
2022-12-25T22:02:53.435Z,29.53
2022-12-25T22:06:21.469Z,20.55
2022-12-25T22:09:24.893Z,35.47
2022-12-25T22:12:45.782Z,37.17
2022-12-25T22:16:07.631Z,29.58
2022-12-25T22:19:28.393Z,30.80
2022-12-25T22:22:32.127Z,31.42
2022-12-25T22:25:34.639Z,31.97
2022-12-25T22:28:37.477Z,33.78
2022-12-25T22:31:46.385Z,32.92
2022-12-25T22:34:49.861Z,30.80
2022-12-25T22:37:54.007Z,30.00
2022-12-25T22:40:57.208Z,23.85
2022-12-25T22:44:17.056Z,28.65
2022-12-25T22:47:20.859Z,38.95
2022-12-25T22:50:23.370Z,33.33
2022-12-25T22:53:26.367Z,30.52
2022-12-25T22:56:29.043Z,29.87
2022-12-25T22:59:33.186Z,30.92
2022-12-25T23:02:35.991Z,32.40
2022-12-25T23:05:38.838Z,34.70
2022-12-25T23:08:41.532Z,31.10
2022-12-25T23:11:44.615Z,36.10
2022-12-25T23:14:47.034Z,36.15
2022-12-25T23:18:08.478Z,34.20
2022-12-25T23:21:34.202Z,32.55
2022-12-25T23:24:56.377Z,34.28
2022-12-25T23:27:58.837Z,39.13
2022-12-25T23:31:01.875Z,34.67
2022-12-25T23:34:06.062Z,37.67
2022-12-25T23:37:10.823Z,25.20
2022-12-25T23:40:13.207Z,32.80
2022-12-25T23:43:16.008Z,37.50
2022-12-25T23:46:18.621Z,25.83
2022-12-25T23:49:23.137Z,26.88
2022-12-25T23:52:25.853Z,38.88
2022-12-25T23:55:28.505Z,36.58
2022-12-25T23:58:30.932Z,34.63
